Answered questions for HPLIP

HPLIP has unanswered questions in the following languages: 1 in Spanish, 1 in French, 1 in Turkish. Can you help?

(Change your preferred languages)
     
              
Summary Created Submitter Assignee Status
Answered 676572 need numbers of envy printers that you support 2018-12-03 20:06:14 UTC 2018-12-03 zippytex Answered
Solved 676530 Installation MFP M130nw 2018-12-02 18:33:21 UTC 2018-12-02 kamyogi Solved
Answered 676305 |Gtk-Message: 08:48:28.338: Failed to load module "canberra-gtk-module" /Gtk-Message: 08:48:28.368: Failed to load module "canberra-gtk-module" 2018-11-22 07:55:25 UTC 2018-11-22 garypeg Answered
Answered 676294 Printer driver for HP printers 2018-11-21 16:26:28 UTC 2018-11-21 Steve Redshaw Answered
Answered 676106 Dependencies missing in hplip-3.18.10_rhel-7.0.x86_64.rpm 2018-11-13 15:09:34 UTC 2018-11-13 Allen Edmondson Answered
Answered 676090 HP Scanner not working 2018-11-12 21:30:21 UTC 2018-11-12 araizasr Answered
Answered 676077 Error message : We’re sorry—We don’t support this operating system 2018-11-12 08:28:51 UTC 2018-11-12 Wendy Studebaker Answered
Answered 675959 new design of wireless Mouse & Tablets 2018-11-06 09:34:32 UTC 2018-11-06 Issam Mohammed Al Balushi Answered
Solved 675686 driver hp envy 4500 2018-10-28 16:47:20 UTC 2018-10-28 michel LAURENT Solved
Answered 675655 Can't scan in Ubuntu 18.10 2018-10-27 04:08:16 UTC 2018-10-27 Keith Bates Answered
Answered 675631 Version: 3.18.9 download and instructions incorrect 2018-10-26 13:25:20 UTC 2018-10-26 Karie Cook Answered
Answered 675569 will have support for Ink tank wireless 415 in hplip? 2018-10-26 01:34:16 UTC 2018-10-26 Victor Castro-Fernandez Answered
Solved 675541 System see printer but will not print 2018-10-24 21:09:12 UTC 2018-10-24 Gilbert Solved
Answered 675506 7855 scanner not working 2018-10-24 02:58:53 UTC 2018-10-24 bmike1 Answered
Answered 675491 HP Deskjet GT 5810 will not work with Ubuntu 18.04 2018-10-23 14:55:43 UTC 2018-10-23 arpee lazaro Answered
Solved 675485 HP M1132 MFP not printing with ubuntu 18.04.1 2018-10-23 13:34:21 UTC 2018-10-23 ermina meli Solved
Answered 675463 HP 7740 All in one will not scan 2018-10-22 18:55:35 UTC 2018-10-22 Lawrence Goldblatt Answered
Answered 675438 Unable to connect to dbus HPLIP 3.18.9 on Ubuntu 16.04LTS HP 7740 2018-10-22 02:53:51 UTC 2018-10-22 C Wachob Answered
Solved 675435 Cannot print after upgrading to Ubuntu 18.04 2018-10-22 00:59:39 UTC 2018-10-22 Kevin O'Shea Solved
Solved 675431 Cannot print HP ENVY Photo 7155 on UBUNTU 18 2018-10-21 21:06:44 UTC 2018-10-21 bloozguy Solved
Answered 675406 hplip-1:3.18.6-2 - HP Officejet 6600 printer not recognized anymore 2018-10-20 18:08:24 UTC 2018-10-20 Jared Dalton Answered
Solved 675399 Ubuntu cannot print on HP deskjet 1510 with cups 2018-10-20 14:56:19 UTC 2018-10-20 Chas IRONS Solved
Answered 675394 HP LaserJet Firmware update with HPLIP / hp-firmware 2018-10-20 11:10:47 UTC 2018-10-20 Wired2051 Answered
Answered 675372 Ubuntu 18.04, MFP M477fdn, no duplex printing 2018-10-19 15:29:40 UTC 2018-10-19 Rebecca Flint Answered
Answered 675277 Scanner on Xpress m2070 stopped working after installing ubuntu 18.04 2018-10-17 07:57:52 UTC 2018-10-17 Soc Gir Answered
Solved 675253 Simple Scan and HPLIP do not recognize my scanner 2018-10-16 14:55:02 UTC 2018-10-16 Lefol Laurent Solved
Solved 675226 Scan HP LaserJet200 Pro MFP m276nw only lines 2018-10-15 18:02:33 UTC 2018-10-15 O. Friedewald Solved
Answered 675224 HPLIP available but doesn't show HP M15W 2018-10-15 16:01:56 UTC 2018-10-15 Stephen Lennane Answered
Answered 675222 An HP LaserJet M1005 MFP stopped working after upgrading my Ubuntu system to 18.04 2018-10-15 15:20:17 UTC 2018-10-15 Denis Vassiliev Answered
Solved 675195 Cups error log states "can' t find PDF header" and "can't detect file type" 2018-10-14 17:32:25 UTC 2018-10-14 Mark Chojnacki Solved
Answered 675179 pressed print, no reaction 2018-10-14 11:38:29 UTC 2018-10-14 DavidBannett Answered
Answered 675099 Ubuntu driver for Designjet Z5600 2018-10-12 11:47:13 UTC 2018-10-12 Jakob Hærvig Answered
Answered 675091 need driver hp laser color jet pro mfp m180n for ubuntu 16.04LTS thanks 2018-10-12 08:52:54 UTC 2018-10-12 andrei Answered
Answered 675073 My Linux version 17.1 of installation for HP 7740 is missing some files 2018-10-11 18:34:22 UTC 2018-10-11 Lawrence Goldblatt Answered
Answered 674935 Need to install m452dn on RHEL 6.7 offline. 2018-10-09 19:45:16 UTC 2018-10-09 Stanley Chong Answered
Solved 674931 Can not print from 18.04 to HP M127fn, hp-check -t shows no issues 2018-10-09 17:47:49 UTC 2018-10-09 peter Solved
Solved 674929 hplip-3-18.9 hp-setup Errors: BadAccess, Error: BadAccess,etc 2018-10-09 17:39:11 UTC 2018-10-09 tkbuntu Solved
Answered 674904 Using the scanner option of a HP printer in Linux is a real headache 2018-10-09 12:46:14 UTC 2018-10-09 Josquin Hoens Answered
Answered 674878 When will support for DJ 2655 be added? 2018-10-08 22:25:46 UTC 2018-10-08 Don Hannah Answered
Answered 674875 HP LaserJet P16067dn printer does not work 2018-10-08 19:30:16 UTC 2018-10-08 piechan Answered
Solved 674828 Problem found during HPLIP Installation on RedHat 7 2018-10-08 01:55:44 UTC 2018-10-08 Mark Solved
Solved 674823 Problems with Deskjet 2630 y Ubuntu 18.04 2018-10-07 20:09:32 UTC 2018-10-07 José Luis Solved
Solved 674783 HP Laserjet P1102w not printing on Ubuntu 18.04 with HPLIP 3.18.9 2018-10-06 23:28:55 UTC 2018-10-06 FK Solved
Answered 674741 How to disable sleep mode so printer should in weak up in Linux Fedora 15 2018-10-06 02:37:45 UTC 2018-10-06 Sanket Answered
Solved 674737 Ink cartridge problem: Tells me to remove and reinstall which I have done 2018-10-05 19:58:15 UTC 2018-10-05 Rex Bouwense Solved
Answered 674684 printer hp envy 5020 not working with ubuntu 18.04 2018-10-04 20:55:31 UTC 2018-10-04 jean-louis gueydon Answered
Answered 674613 I can print a test page from cups but not windows clients 2018-10-03 02:41:07 UTC 2018-10-03 billc Answered
Answered 674581 error code when running hp-setup 2018-10-01 19:22:57 UTC 2018-10-01 Bart Hollis Answered
Answered 674517 tray select on HP8720 2018-09-29 16:59:21 UTC 2018-09-29 Lutz-Peter Answered
Answered 674446 SNMP Community String 2018-09-26 15:12:09 UTC 2018-09-26 Michael Keane Answered
Answered 674436 HPLIP version 1.6.7 - What are the supported HP Printers 2018-09-26 09:24:17 UTC 2018-09-26 John Joaquin Answered
Answered 674427 HP ink Tank 315 not work in Linux 2018-09-26 01:12:57 UTC 2018-09-26 Eduardo Moreno Answered
Solved 674426 Problem on HP Laserjet M1132 MFP Drivers on Linux Mint 19 2018-09-26 00:31:44 UTC 2018-09-26 paulo Solved
Answered 674423 connecting linux mint 17.3 to hp envy 5055 printer scanner 2018-09-25 23:54:21 UTC 2018-09-25 Frederick Fass Answered
Answered 674342 hplip cannot connect P1102w 2018-09-24 14:58:52 UTC 2018-09-24 Erik P. Olsen Answered
Answered 674325 Debian missing dependencies. 2018-09-23 16:05:28 UTC 2018-09-23 Giorgos Kostopoulos Answered
Answered 674284 hp8710 office connection to ubuntu 18.04 2018-09-21 21:15:22 UTC 2018-09-21 Paul Garff Answered
Answered 674252 The printer outputs plain papers. 2018-09-21 06:53:04 UTC 2018-09-21 Yanxiang Gong Answered
Answered 674247 HP Printer issue with HPLIP 2018-09-21 04:21:58 UTC 2018-09-21 Vipul Answered
Solved 674243 How does one submit patches for hplip? 2018-09-20 21:55:32 UTC 2018-09-20 Francois Gouget Solved
Answered 674228 how to setup HP printer on Google Chrome book OS 2018-09-19 23:36:25 UTC 2018-09-19 Candice Answered
Answered 674131 HPLIP Permission error: Unsupported model: DeskJet_2600_series 2018-09-19 04:06:53 UTC 2018-09-19 MIthidieri Answered
Answered 674077 Binary plugin download error with error code = 8 2018-09-18 08:02:16 UTC 2018-09-18 Sruti Answered
Answered 674061 print speed on the network 2018-09-17 19:52:57 UTC 2018-09-17 daniel lopesfilho Answered
Answered 674033 My HP 3150 says "both cartridges are incompatable 2018-09-16 21:06:08 UTC 2018-09-16 david frostick Answered
Answered 674030 Installing HPLIP on Raspberry pi wont accept superuser password 2018-09-16 18:29:45 UTC 2018-09-16 David Hickey Answered
Solved 673977 Cannot find the scanner in HP Device Manager 2018-09-15 07:32:12 UTC 2018-09-15 Jens Fosen Solved
Answered 673968 HP Color LaserJet Pro MFP M281fdw 2018-09-14 22:02:10 UTC 2018-09-14 DoBo Answered
Answered 673947 HPLaserjetPro1102w on Linux Mint 19 Tara suddenly can't print 2018-09-14 09:04:12 UTC 2018-09-14 Daisy Bachmann Answered
Answered 673762 HP MFP M125a not scanning, Ubuntu 18.04 2018-09-12 22:31:37 UTC 2018-09-12 MIlos Answered
Answered 673741 HP 500 drivers / software 2018-09-12 14:29:56 UTC 2018-09-12 Thomas Answered
Answered 673698 Could not open the file /home/sunka/Downloads/hplip-3.18.7.run. 2018-09-10 17:32:53 UTC 2018-09-10 al x Answered
Answered 673630 will not print 2018-09-09 19:00:56 UTC 2018-09-09 Patricia Answered
Solved 673616 I have just upadated to 18.04 LTS- scanning software no longer works 2018-09-09 10:49:52 UTC 2018-09-09 Ian Grant Solved
Answered 673485 Set UP HP printer 2018-09-07 21:29:00 UTC 2018-09-07 Antonio Giallanza Answered
175 of 5000 results

Answer contacts for HPLIP